Time;durP1;ratioP1;P1;durP2;ratioP2;P2;SDS_P1;SDS_P2;PMS_P1;PMS_P2;Temp;Humidity;BMP_temperature;BMP_pressure;BME280_temperature;BME280_humidity;BME280_pressure;Samples;Min_cycle;Max_cycle;Signal;HPM_P1;HPM_P2
2022/12/17 13:06:13;;;;;;;6.18;4.15;;;16.00;35.70;;;;;;5107108;27;45507;-77
2022/12/17 13:08:40;;;;;;;7.60;4.38;;;16.00;36.40;;;;;;5142702;27;45296;-76
2022/12/17 13:11:21;;;;;;;9.70;4.53;;;16.00;35.90;;;;;;5062690;28;48265;-74
2022/12/17 13:13:55;;;;;;;6.72;4.05;;;16.00;36.50;;;;;;5069471;27;45515;-74
2022/12/17 13:16:28;;;;;;;8.85;4.25;;;15.90;36.00;;;;;;5081792;27;45440;-75
2022/12/17 13:19:01;;;;;;;7.40;4.78;;;16.00;36.20;;;;;;5081324;27;45404;-72
2022/12/17 13:21:30;;;;;;;11.40;5.05;;;16.20;36.00;;;;;;5058208;28;45764;-74
2022/12/17 13:23:57;;;;;;;7.75;4.90;;;16.40;35.80;;;;;;5065630;28;45193;-73
2022/12/17 13:26:24;;;;;;;9.18;4.80;;;16.60;35.40;;;;;;5104454;27;45482;-74
2022/12/17 13:29:11;;;;;;;6.57;4.78;;;16.80;35.50;;;;;;5065839;27;45347;-72
2022/12/17 13:31:47;;;;;;;6.28;4.47;;;17.00;34.10;;;;;;5060872;27;45733;-75
2022/12/17 13:34:17;;;;;;;10.70;4.72;;;17.30;34.20;;;;;;5065731;28;45237;-73
2022/12/17 13:36:46;;;;;;;8.30;4.78;;;17.40;33.70;;;;;;5065327;27;45215;-75
2022/12/17 13:39:25;;;;;;;8.23;5.05;;;17.70;33.10;;;;;;5082933;27;45380;-77
2022/12/17 13:41:53;;;;;;;10.00;5.55;;;17.80;32.60;;;;;;5066487;28;46456;-76
2022/12/17 13:44:23;;;;;;;8.82;5.28;;;17.90;32.10;;;;;;5064578;28;45600;-76
2022/12/17 13:46:51;;;;;;;7.68;5.22;;;18.00;32.40;;;;;;5065687;27;45424;-76
2022/12/17 13:49:19;;;;;;;6.88;5.32;;;18.10;32.30;;;;;;5065684;28;45186;-73
2022/12/17 13:51:46;;;;;;;7.13;5.18;;;18.20;33.40;;;;;;5065520;27;45349;-72
2022/12/17 13:54:15;;;;;;;8.63;5.85;;;18.10;32.20;;;;;;5065114;27;45312;-75
2022/12/17 13:56:42;;;;;;;9.98;5.85;;;18.20;32.40;;;;;;5065694;27;45149;-74
2022/12/17 13:59:17;;;;;;;6.63;5.03;;;18.20;32.40;;;;;;5065567;28;45343;-73
2022/12/17 14:01:46;;;;;;;8.40;5.43;;;18.30;31.80;;;;;;5065223;27;45314;-73
2022/12/17 14:04:20;;;;;;;8.00;6.00;;;18.40;32.80;;;;;;5065102;28;45388;-72
2022/12/17 14:06:47;;;;;;;8.20;5.57;;;18.40;31.60;;;;;;5054466;27;45149;-75
2022/12/17 14:09:15;;;;;;;7.70;5.97;;;18.40;31.60;;;;;;5116544;27;45499;-72
2022/12/17 14:14:28;;;;;;;7.25;5.30;;;18.50;31.90;;;;;;5060108;27;45288;-74
2022/12/17 14:16:57;;;;;;;9.18;5.70;;;18.60;31.90;;;;;;5071085;27;45374;-74
2022/12/17 14:19:23;;;;;;;8.88;5.78;;;18.60;31.80;;;;;;5068227;28;45421;-72
2022/12/17 14:21:50;;;;;;;7.20;5.50;;;18.60;32.40;;;;;;5064679;28;45545;-74
2022/12/17 14:24:18;;;;;;;8.38;6.40;;;18.70;32.10;;;;;;5065209;28;45200;-77
2022/12/17 14:26:49;;;;;;;9.00;6.10;;;18.80;32.00;;;;;;5064257;27;45323;-71
2022/12/17 14:29:21;;;;;;;11.27;8.80;;;18.80;31.70;;;;;;5064049;28;45374;-78
2022/12/17 14:31:52;;;;;;;17.15;9.85;;;18.80;31.70;;;;;;5064547;27;45371;-74
2022/12/17 14:34:20;;;;;;;14.70;10.77;;;18.90;31.50;;;;;;5064619;28;45427;-74
2022/12/17 14:36:47;;;;;;;11.80;9.40;;;18.90;31.30;;;;;;5065310;28;45347;-72
2022/12/17 14:39:18;;;;;;;11.85;8.95;;;18.90;31.10;;;;;;5064888;27;45625;-73
2022/12/17 14:44:30;;;;;;;11.32;8.63;;;18.90;31.30;;;;;;5062650;28;45231;-74
2022/12/17 14:47:07;;;;;;;14.45;9.82;;;18.90;31.30;;;;;;5064494;28;45428;-74
2022/12/17 14:49:37;;;;;;;16.67;10.68;;;19.00;31.20;;;;;;5065271;27;45377;-77
2022/12/17 14:52:12;;;;;;;15.27;11.63;;;19.10;31.50;;;;;;5064700;28;45670;-76
2022/12/17 14:54:45;;;;;;;12.60;9.60;;;19.10;31.50;;;;;;5064329;28;45213;-73
2022/12/17 14:57:19;;;;;;;12.57;9.07;;;19.10;31.20;;;;;;5064515;28;45189;-73
2022/12/17 14:59:46;;;;;;;12.15;9.10;;;19.10;31.10;;;;;;5044945;28;45184;-74
2022/12/17 15:02:19;;;;;;;12.70;8.32;;;19.10;31.00;;;;;;5044475;28;46403;-74
2022/12/17 15:04:48;;;;;;;12.38;8.45;;;19.10;31.50;;;;;;5044536;27;45256;-73
2022/12/17 15:07:15;;;;;;;15.52;9.18;;;19.10;31.10;;;;;;5044518;28;45194;-73
2022/12/17 15:09:42;;;;;;;12.02;8.88;;;19.10;30.70;;;;;;5047062;28;45219;-72
2022/12/17 15:12:09;;;;;;;19.77;9.10;;;19.10;31.30;;;;;;5050950;28;47022;-73
2022/12/17 15:14:36;;;;;;;14.13;9.32;;;19.20;30.90;;;;;;5067991;27;45207;-71
2022/12/17 15:17:04;;;;;;;13.43;10.20;;;19.30;31.00;;;;;;5066376;28;45525;-73
2022/12/17 15:19:31;;;;;;;26.48;19.77;;;19.30;30.90;;;;;;5065395;27;45333;-72
2022/12/17 15:21:59;;;;;;;25.70;19.80;;;19.40;30.50;;;;;;5064262;28;46403;-74
2022/12/17 15:24:26;;;;;;;17.10;13.38;;;19.30;30.10;;;;;;5064453;28;45197;-74
2022/12/17 15:26:53;;;;;;;17.52;13.07;;;19.30;30.40;;;;;;5064240;28;45227;-70
2022/12/17 15:29:20;;;;;;;15.05;11.98;;;19.40;30.80;;;;;;5064832;28;45304;-75
2022/12/17 15:31:47;;;;;;;295.05;226.15;;;19.40;31.70;;;;;;5063453;28;45483;-75
2022/12/17 15:34:14;;;;;;;116.85;86.15;;;19.50;30.70;;;;;;5062667;28;45473;-72
2022/12/17 15:36:40;;;;;;;65.25;48.15;;;19.50;30.20;;;;;;5064753;27;45333;-74
2022/12/17 15:39:09;;;;;;;52.47;36.92;;;19.50;30.50;;;;;;5064611;28;45672;-76
2022/12/17 15:44:19;;;;;;;59.55;43.38;;;19.60;30.70;;;;;;5061869;28;45190;-74
2022/12/17 15:46:46;;;;;;;59.10;41.53;;;19.60;30.50;;;;;;5063718;28;45270;-74
2022/12/17 15:49:13;;;;;;;43.33;33.83;;;19.60;31.20;;;;;;5064413;28;45397;-74
2022/12/17 15:51:40;;;;;;;47.03;32.22;;;19.60;30.20;;;;;;5069878;28;45326;-75
2022/12/17 15:54:08;;;;;;;51.17;33.60;;;19.70;30.50;;;;;;5070390;28;45190;-75
2022/12/17 15:56:36;;;;;;;41.88;32.30;;;19.70;30.60;;;;;;5070357;28;45188;-75
2022/12/17 15:59:02;;;;;;;127.45;79.13;;;19.70;30.30;;;;;;5070919;27;45431;-73
2022/12/17 16:01:29;;;;;;;96.22;63.03;;;19.70;30.00;;;;;;5070253;27;45460;-73
2022/12/17 16:03:57;;;;;;;71.63;46.97;;;19.70;30.00;;;;;;5070443;28;45296;-74
2022/12/17 16:06:24;;;;;;;64.50;44.25;;;19.60;30.70;;;;;;5070564;28;45128;-75
2022/12/17 16:08:50;;;;;;;65.57;42.17;;;19.70;30.10;;;;;;5070303;28;45388;-70
2022/12/17 16:11:19;;;;;;;59.60;40.00;;;19.70;30.10;;;;;;5067075;28;46408;-73
2022/12/17 16:13:46;;;;;;;55.38;38.83;;;19.60;30.00;;;;;;5069258;28;45224;-74
2022/12/17 16:16:12;;;;;;;56.75;38.33;;;19.60;30.10;;;;;;5069787;28;45189;-73
2022/12/17 16:18:39;;;;;;;52.35;36.85;;;19.50;30.00;;;;;;5069896;27;45273;-71
2022/12/17 16:21:07;;;;;;;51.97;34.72;;;19.40;30.10;;;;;;5069224;28;47680;-72
2022/12/17 16:23:34;;;;;;;50.65;34.72;;;19.30;30.20;;;;;;5068795;28;46250;-71
2022/12/17 16:26:01;;;;;;;47.58;34.25;;;19.20;30.20;;;;;;5068992;28;45247;-73
2022/12/17 16:28:30;;;;;;;45.78;31.98;;;19.10;30.30;;;;;;5069550;27;45203;-73
2022/12/17 16:31:00;;;;;;;47.63;31.25;;;19.00;30.30;;;;;;5067944;28;45237;-74
2022/12/17 16:33:27;;;;;;;43.58;29.98;;;18.90;30.60;;;;;;5067085;28;45206;-72
2022/12/17 16:35:54;;;;;;;41.83;30.05;;;18.70;30.60;;;;;;5067240;27;45198;-74
2022/12/17 16:38:21;;;;;;;44.58;30.20;;;18.60;30.90;;;;;;5066829;27;45186;-73
2022/12/17 16:40:48;;;;;;;38.83;27.98;;;18.50;30.90;;;;;;5063706;27;46509;-74
2022/12/17 16:43:15;;;;;;;39.65;26.33;;;18.40;30.90;;;;;;5063544;27;45382;-73
2022/12/17 16:45:47;;;;;;;39.78;26.10;;;18.30;31.10;;;;;;5065472;28;45241;-74
2022/12/17 16:48:14;;;;;;;38.70;26.83;;;18.20;31.20;;;;;;5065037;27;45549;-74
2022/12/17 16:50:41;;;;;;;37.97;24.98;;;18.10;31.30;;;;;;5063541;27;46616;-74
2022/12/17 16:53:08;;;;;;;38.63;25.88;;;18.00;31.40;;;;;;5063556;28;45235;-74
2022/12/17 16:55:39;;;;;;;37.33;24.40;;;17.90;31.50;;;;;;5063067;27;45187;-74
2022/12/17 16:58:06;;;;;;;35.05;24.33;;;17.80;31.70;;;;;;5063911;28;45203;-73
2022/12/17 17:00:33;;;;;;;34.75;23.40;;;17.70;31.80;;;;;;5066330;28;45325;-74
2022/12/17 17:03:01;;;;;;;33.78;23.95;;;17.60;31.90;;;;;;5066289;27;45190;-74
2022/12/17 17:05:30;;;;;;;33.03;22.98;;;17.50;32.00;;;;;;5066272;27;45324;-74
2022/12/17 17:08:00;;;;;;;31.63;21.95;;;17.50;32.20;;;;;;5066783;28;45306;-73
2022/12/17 17:10:27;;;;;;;30.77;20.77;;;17.40;32.30;;;;;;5066314;27;46382;-74
2022/12/17 17:12:54;;;;;;;30.45;20.60;;;17.30;32.30;;;;;;5065657;28;45293;-74
2022/12/17 17:15:21;;;;;;;28.80;20.05;;;17.20;32.50;;;;;;5066200;27;45251;-74
2022/12/17 17:17:48;;;;;;;27.73;19.02;;;17.10;32.90;;;;;;5065912;27;45186;-74
2022/12/17 17:20:16;;;;;;;28.67;19.45;;;17.00;32.90;;;;;;5065987;28;46336;-73
2022/12/17 17:22:43;;;;;;;28.13;18.00;;;17.00;33.00;;;;;;5066204;28;45453;-73
2022/12/17 17:25:10;;;;;;;26.90;18.00;;;16.90;33.10;;;;;;5066462;27;45270;-73
2022/12/17 17:27:36;;;;;;;26.27;17.38;;;16.80;33.20;;;;;;5066327;27;45395;-73
2022/12/17 17:30:04;;;;;;;25.83;16.23;;;16.70;33.20;;;;;;5065937;28;46333;-73
2022/12/17 17:32:31;;;;;;;25.00;16.20;;;16.60;33.30;;;;;;5065797;28;45183;-73
2022/12/17 17:34:58;;;;;;;26.83;17.60;;;16.60;33.50;;;;;;5066087;28;45339;-73
2022/12/17 17:37:26;;;;;;;24.88;16.42;;;16.50;33.70;;;;;;5066458;27;45268;-73
2022/12/17 17:39:53;;;;;;;25.05;15.60;;;16.40;33.80;;;;;;5065936;27;46367;-73
2022/12/17 17:42:20;;;;;;;22.58;15.88;;;16.30;33.90;;;;;;5065719;27;45256;-73
2022/12/17 17:44:47;;;;;;;22.75;15.10;;;16.30;34.00;;;;;;5066205;27;45213;-73
2022/12/17 17:47:14;;;;;;;30.42;15.55;;;16.20;34.20;;;;;;5066199;27;45300;-73
2022/12/17 17:49:41;;;;;;;21.40;15.07;;;16.10;34.30;;;;;;5065617;28;46996;-73
2022/12/17 17:52:08;;;;;;;23.70;14.40;;;16.10;34.50;;;;;;5065699;27;45156;-73
2022/12/17 17:54:37;;;;;;;25.40;14.68;;;16.00;34.50;;;;;;5065802;28;45258;-73
2022/12/17 17:57:04;;;;;;;24.33;14.50;;;16.00;34.50;;;;;;5065184;28;45302;-73
2022/12/17 17:59:31;;;;;;;22.77;13.63;;;16.00;34.50;;;;;;5065235;28;45496;-73
2022/12/17 18:01:58;;;;;;;21.85;13.90;;;16.10;34.40;;;;;;5065435;27;45404;-73
2022/12/17 18:04:25;;;;;;;20.30;13.13;;;16.10;34.30;;;;;;5065624;28;45315;-73
2022/12/17 18:06:52;;;;;;;18.13;13.02;;;16.20;34.20;;;;;;5065788;27;45274;-73
2022/12/17 18:09:19;;;;;;;18.90;11.68;;;16.30;34.10;;;;;;5065154;27;46690;-73
2022/12/17 18:11:47;;;;;;;20.20;12.80;;;16.30;34.00;;;;;;5065394;27;45306;-72
2022/12/17 18:14:13;;;;;;;18.25;11.57;;;16.40;33.90;;;;;;5065309;27;45189;-73
2022/12/17 18:16:41;;;;;;;18.00;11.95;;;16.50;33.90;;;;;;5065612;27;45169;-73
2022/12/17 18:19:09;;;;;;;17.65;11.27;;;16.50;33.70;;;;;;5065144;27;46382;-73
2022/12/17 18:21:36;;;;;;;17.83;11.02;;;16.50;33.60;;;;;;5065421;28;45372;-73
2022/12/17 18:24:04;;;;;;;17.52;11.63;;;16.50;33.60;;;;;;5065320;28;45376;-73
2022/12/17 18:26:33;;;;;;;17.00;11.13;;;16.60;33.60;;;;;;5065254;28;45217;-73
2022/12/17 18:29:02;;;;;;;16.63;10.60;;;16.50;33.60;;;;;;5065146;28;45439;-73
2022/12/17 18:31:29;;;;;;;17.05;10.88;;;16.50;33.50;;;;;;5065740;28;45285;-73
2022/12/17 18:33:57;;;;;;;16.73;11.75;;;16.50;33.60;;;;;;5065868;27;45215;-73
2022/12/17 18:36:25;;;;;;;16.05;10.55;;;16.50;33.60;;;;;;5066503;27;45285;-73
2022/12/17 18:38:55;;;;;;;16.08;10.55;;;16.40;33.60;;;;;;5064983;28;46422;-73
2022/12/17 18:44:07;;;;;;;14.85;10.27;;;16.30;33.70;;;;;;5062903;28;45213;-73
2022/12/17 18:46:34;;;;;;;17.33;10.45;;;16.30;33.70;;;;;;5065387;28;45566;-73
2022/12/17 18:49:03;;;;;;;15.73;10.45;;;16.20;33.70;;;;;;5064944;27;46699;-73
2022/12/17 18:51:30;;;;;;;14.15;9.60;;;16.20;33.90;;;;;;5065613;28;45198;-73
2022/12/17 18:53:57;;;;;;;16.73;10.13;;;16.10;34.00;;;;;;5064997;28;45200;-73
2022/12/17 18:56:24;;;;;;;14.70;10.05;;;16.00;34.00;;;;;;5065327;27;45388;-73
2022/12/17 18:58:52;;;;;;;14.82;9.75;;;16.00;34.10;;;;;;5064875;27;46878;-73
2022/12/17 19:01:21;;;;;;;13.23;8.88;;;15.90;34.20;;;;;;5065181;28;45481;-72
2022/12/17 19:03:48;;;;;;;16.55;9.50;;;15.90;34.30;;;;;;5062197;28;45221;-72
2022/12/17 19:06:15;;;;;;;12.77;8.55;;;15.80;34.40;;;;;;5065376;28;45304;-73
2022/12/17 19:08:42;;;;;;;14.35;9.38;;;15.80;34.50;;;;;;5064612;28;46676;-73
2022/12/17 19:11:09;;;;;;;12.73;7.72;;;15.70;34.50;;;;;;5064575;28;45230;-72
2022/12/17 19:13:36;;;;;;;12.95;9.07;;;15.80;34.60;;;;;;5064934;27;45210;-73
2022/12/17 19:16:08;;;;;;;19.00;8.95;;;15.80;34.50;;;;;;5065980;28;45252;-76
2022/12/17 19:18:36;;;;;;;12.40;8.32;;;15.80;34.90;;;;;;5062604;28;45496;-71
2022/12/17 19:21:03;;;;;;;13.90;8.75;;;15.90;36.90;;;;;;5063616;28;45188;-74
2022/12/17 19:23:31;;;;;;;14.43;8.93;;;16.00;35.60;;;;;;5064591;27;45281;-74
2022/12/17 19:26:04;;;;;;;12.32;8.55;;;16.10;36.00;;;;;;5065773;28;45269;-75
2022/12/17 19:28:31;;;;;;;12.85;8.35;;;16.10;35.30;;;;;;5064479;28;45506;-74
2022/12/17 19:30:58;;;;;;;16.80;9.25;;;16.20;34.90;;;;;;5064049;28;45427;-70
2022/12/17 19:33:25;;;;;;;14.30;8.00;;;16.30;34.60;;;;;;5064579;28;45192;-77
2022/12/17 19:35:58;;;;;;;14.02;8.35;;;16.30;34.40;;;;;;5064055;28;45467;-75
2022/12/17 19:38:25;;;;;;;12.18;8.48;;;16.30;34.30;;;;;;5063592;28;46390;-75
2022/12/17 19:40:52;;;;;;;12.38;8.35;;;16.30;34.20;;;;;;5064627;27;45216;-76
2022/12/17 19:43:19;;;;;;;12.65;8.77;;;16.30;34.20;;;;;;5066051;27;45490;-77
2022/12/17 19:45:46;;;;;;;13.82;8.63;;;16.30;34.20;;;;;;5065622;28;45314;-74
2022/12/17 19:48:15;;;;;;;11.77;7.78;;;16.30;34.30;;;;;;5064470;28;46345;-75
2022/12/17 19:50:42;;;;;;;11.63;7.18;;;16.30;34.80;;;;;;5064580;28;45125;-80
2022/12/17 19:53:10;;;;;;;12.55;7.50;;;16.30;34.30;;;;;;5064843;28;45372;-76
2022/12/17 19:55:37;;;;;;;12.13;7.88;;;16.30;34.40;;;;;;5065406;28;45344;-76
2022/12/17 19:58:04;;;;;;;261.35;181.48;;;16.20;34.10;;;;;;5064133;28;46415;-75
2022/12/17 20:00:31;;;;;;;154.55;110.35;;;16.20;34.80;;;;;;5063885;28;45204;-75
2022/12/17 20:02:58;;;;;;;129.98;86.68;;;16.20;34.90;;;;;;5064264;28;45189;-75
2022/12/17 20:05:25;;;;;;;54.97;36.97;;;16.30;35.20;;;;;;5063991;27;45564;-77
2022/12/17 20:07:51;;;;;;;62.05;47.65;;;16.30;34.50;;;;;;5064603;28;46354;-77
2022/12/17 20:10:20;;;;;;;211.98;155.07;;;16.20;34.40;;;;;;5065281;28;44736;-79
2022/12/17 20:12:47;;;;;;;153.55;107.15;;;16.20;34.60;;;;;;5064821;27;45270;-74
2022/12/17 20:15:14;;;;;;;216.77;145.45;;;16.20;34.70;;;;;;5064792;28;45453;-76
2022/12/17 20:17:41;;;;;;;258.92;184.18;;;16.20;34.80;;;;;;5063745;28;46299;-76
2022/12/17 20:20:08;;;;;;;246.45;171.25;;;16.10;34.90;;;;;;5063782;28;45329;-76
2022/12/17 20:22:35;;;;;;;231.80;160.43;;;16.10;35.00;;;;;;5063170;28;45256;-76
2022/12/17 20:25:06;;;;;;;215.43;154.82;;;16.10;35.10;;;;;;5063981;28;45266;-76
2022/12/17 20:27:34;;;;;;;203.43;144.63;;;16.00;35.00;;;;;;5063245;27;46655;-76
2022/12/17 20:30:01;;;;;;;198.63;142.82;;;16.00;35.10;;;;;;5063239;27;45214;-76
2022/12/17 20:32:28;;;;;;;192.52;130.13;;;16.00;35.10;;;;;;5064705;28;45189;-76
2022/12/17 20:34:55;;;;;;;180.57;127.30;;;15.90;35.20;;;;;;5066682;28;45426;-76
2022/12/17 20:37:22;;;;;;;172.18;120.70;;;15.90;35.30;;;;;;5065672;28;46140;-76
2022/12/17 20:39:49;;;;;;;172.73;120.78;;;15.80;35.30;;;;;;5064010;28;45349;-76
2022/12/17 20:42:16;;;;;;;164.23;114.65;;;15.70;35.40;;;;;;5068534;28;45206;-76
2022/12/17 20:44:45;;;;;;;155.73;110.47;;;15.70;35.40;;;;;;5069825;28;45392;-76
2022/12/17 20:47:12;;;;;;;150.00;103.75;;;15.60;35.50;;;;;;5067235;28;46660;-76
2022/12/17 20:49:39;;;;;;;141.55;100.32;;;15.60;35.60;;;;;;5068022;27;45451;-75
2022/12/17 20:52:06;;;;;;;133.43;92.68;;;15.50;35.50;;;;;;5068454;28;45190;-76
2022/12/17 20:54:33;;;;;;;127.60;90.90;;;15.50;35.60;;;;;;5068396;28;45111;-75
2022/12/17 20:57:00;;;;;;;127.25;91.95;;;15.40;35.80;;;;;;5067458;28;46696;-77
2022/12/17 20:59:27;;;;;;;121.30;84.90;;;15.40;35.80;;;;;;5066705;27;45481;-77
2022/12/17 21:01:55;;;;;;;115.25;79.70;;;15.30;35.80;;;;;;5067279;28;45211;-77
2022/12/17 21:04:22;;;;;;;108.07;76.40;;;15.30;35.90;;;;;;5067289;27;45398;-77
2022/12/17 21:06:49;;;;;;;106.47;73.22;;;15.30;35.90;;;;;;5063818;28;46221;-77
2022/12/17 21:09:17;;;;;;;101.00;71.40;;;15.30;35.90;;;;;;5066866;27;45231;-74
2022/12/17 21:11:44;;;;;;;102.40;67.78;;;15.30;35.80;;;;;;5066964;27;45319;-77
2022/12/17 21:14:12;;;;;;;92.72;64.63;;;15.40;35.80;;;;;;5067071;27;45178;-74
2022/12/17 21:16:39;;;;;;;86.70;60.53;;;15.40;35.70;;;;;;5067168;28;46947;-74
2022/12/17 21:19:08;;;;;;;83.47;56.55;;;15.50;35.60;;;;;;5066652;28;45365;-78
2022/12/17 21:21:35;;;;;;;84.75;57.47;;;15.60;35.50;;;;;;5066786;27;45363;-74
2022/12/17 21:24:02;;;;;;;75.93;55.00;;;15.70;35.30;;;;;;5066949;27;45368;-75
2022/12/17 21:26:30;;;;;;;71.65;50.42;;;15.70;35.30;;;;;;5066086;28;47562;-75
2022/12/17 21:28:57;;;;;;;68.93;49.80;;;15.80;35.20;;;;;;5066289;27;45418;-75
2022/12/17 21:31:24;;;;;;;70.22;48.97;;;15.80;35.20;;;;;;5067294;27;45360;-75
2022/12/17 21:33:52;;;;;;;64.18;46.88;;;15.80;35.10;;;;;;5066792;28;45201;-75
2022/12/17 21:36:21;;;;;;;59.53;43.05;;;15.80;35.10;;;;;;5066617;27;45759;-75
2022/12/17 21:38:48;;;;;;;61.95;45.25;;;15.80;35.10;;;;;;5066175;27;45265;-75
2022/12/17 21:41:16;;;;;;;58.03;40.85;;;15.80;35.10;;;;;;5066765;28;45387;-76
2022/12/17 21:43:43;;;;;;;59.33;40.50;;;15.80;35.10;;;;;;5066236;27;45233;-75
2022/12/17 21:46:11;;;;;;;55.15;38.72;;;15.80;35.20;;;;;;5066518;27;46957;-77
2022/12/17 21:48:39;;;;;;;50.50;37.97;;;15.80;35.20;;;;;;5065755;27;45531;-75
2022/12/17 21:51:06;;;;;;;50.58;35.83;;;15.70;35.20;;;;;;5066200;28;45251;-75
2022/12/17 21:53:34;;;;;;;46.85;33.25;;;15.70;35.20;;;;;;5066731;27;45170;-75
2022/12/17 21:56:02;;;;;;;49.33;32.58;;;15.70;35.20;;;;;;5065952;28;47315;-75
2022/12/17 21:58:29;;;;;;;46.10;31.73;;;15.60;35.30;;;;;;5066099;27;45423;-75
2022/12/17 22:00:56;;;;;;;43.97;31.50;;;15.60;35.30;;;;;;5066233;28;45178;-75
2022/12/17 22:03:23;;;;;;;41.33;30.95;;;15.60;35.30;;;;;;5066738;28;45187;-74
2022/12/17 22:05:50;;;;;;;41.67;29.13;;;15.60;35.40;;;;;;5066408;28;46394;-75
2022/12/17 22:08:17;;;;;;;37.53;26.90;;;15.50;35.30;;;;;;5065717;28;45320;-75
2022/12/17 22:10:46;;;;;;;38.90;27.75;;;15.50;35.30;;;;;;5065561;28;45291;-75
2022/12/17 22:16:00;;;;;;;35.63;24.42;;;15.50;35.50;;;;;;5030779;28;45325;-75
2022/12/17 22:18:27;;;;;;;36.45;24.20;;;15.40;35.50;;;;;;5065235;28;45361;-75
2022/12/17 22:20:57;;;;;;;32.50;23.10;;;15.30;35.60;;;;;;5065332;28;45349;-75
2022/12/17 22:23:24;;;;;;;31.92;24.23;;;15.30;36.20;;;;;;5065434;28;45102;-75
2022/12/17 22:25:52;;;;;;;27.60;21.70;;;15.30;35.60;;;;;;5066036;28;46823;-75
2022/12/17 22:28:19;;;;;;;34.47;21.25;;;15.20;35.70;;;;;;5066953;28;45403;-75
2022/12/17 22:33:31;;;;;;;30.33;20.45;;;15.10;35.80;;;;;;5066350;28;45296;-75
2022/12/17 22:35:59;;;;;;;27.95;19.00;;;15.10;35.80;;;;;;5066843;28;46663;-75
2022/12/17 22:38:26;;;;;;;28.10;19.73;;;15.10;35.90;;;;;;5066386;28;45308;-75
2022/12/17 22:40:55;;;;;;;30.02;18.83;;;15.10;35.90;;;;;;5064855;27;45413;-76
2022/12/17 22:43:30;;;;;;;29.33;19.65;;;15.00;35.90;;;;;;5066448;27;45173;-77
2022/12/17 22:45:59;;;;;;;25.05;18.17;;;15.10;35.90;;;;;;5064812;28;45565;-75
2022/12/17 22:48:26;;;;;;;23.73;16.88;;;15.20;35.80;;;;;;5065688;28;45243;-78
2022/12/17 22:50:53;;;;;;;22.88;16.63;;;15.30;35.80;;;;;;5064579;28;45300;-75
2022/12/17 22:53:20;;;;;;;22.52;16.48;;;15.30;35.60;;;;;;5065550;28;45426;-75
2022/12/17 22:55:47;;;;;;;23.75;16.70;;;15.50;35.50;;;;;;5063711;28;45468;-75
2022/12/17 22:58:16;;;;;;;21.73;15.55;;;15.50;35.40;;;;;;5068418;28;45201;-75
2022/12/17 23:00:42;;;;;;;23.05;16.15;;;15.60;35.30;;;;;;5066007;28;45381;-76
2022/12/17 23:03:09;;;;;;;20.83;15.68;;;15.70;35.30;;;;;;5066128;27;45293;-75
2022/12/17 23:05:36;;;;;;;20.70;15.23;;;15.70;35.20;;;;;;5064950;28;46650;-77
2022/12/17 23:08:03;;;;;;;21.63;14.68;;;15.80;35.20;;;;;;5065300;28;45217;-77
2022/12/17 23:10:30;;;;;;;21.52;14.50;;;15.80;35.10;;;;;;5065995;27;45205;-77
2022/12/17 23:12:57;;;;;;;19.15;14.13;;;15.80;35.10;;;;;;5066307;28;45534;-77
2022/12/17 23:15:30;;;;;;;19.35;13.27;;;15.80;35.10;;;;;;5065299;28;45408;-75
2022/12/17 23:17:58;;;;;;;17.52;13.20;;;15.80;35.60;;;;;;5065633;28;45380;-75
2022/12/17 23:20:25;;;;;;;17.88;12.43;;;15.80;35.00;;;;;;5065807;28;45335;-75
2022/12/17 23:22:52;;;;;;;19.65;13.07;;;15.80;35.00;;;;;;5065252;28;45229;-75
2022/12/17 23:25:19;;;;;;;17.33;11.95;;;15.80;35.10;;;;;;5064724;28;46342;-75
2022/12/17 23:27:46;;;;;;;15.82;11.55;;;15.70;35.00;;;;;;5065543;28;45222;-74
2022/12/17 23:30:14;;;;;;;15.73;11.77;;;15.70;35.10;;;;;;5065677;27;45340;-75
2022/12/17 23:32:42;;;;;;;16.00;10.75;;;15.70;35.10;;;;;;5065118;28;45484;-75
2022/12/17 23:35:09;;;;;;;16.90;11.35;;;15.60;35.10;;;;;;5062284;28;45430;-74
2022/12/17 23:37:36;;;;;;;15.02;10.80;;;15.60;35.10;;;;;;5064200;28;45216;-75
2022/12/17 23:40:03;;;;;;;14.88;10.80;;;15.60;35.20;;;;;;5064902;28;45290;-76
2022/12/17 23:42:30;;;;;;;15.35;11.07;;;15.50;35.20;;;;;;5062389;28;45281;-75
2022/12/17 23:44:57;;;;;;;16.25;10.48;;;15.50;35.30;;;;;;5064450;28;47375;-76
2022/12/17 23:47:24;;;;;;;14.43;9.48;;;15.50;35.40;;;;;;5064440;28;45178;-75
2022/12/17 23:49:52;;;;;;;13.98;10.55;;;15.40;35.40;;;;;;5064646;28;45192;-75
2022/12/17 23:52:19;;;;;;;15.27;10.73;;;15.40;35.40;;;;;;5065251;28;45312;-76
2022/12/17 23:54:46;;;;;;;14.25;10.23;;;15.30;35.50;;;;;;5064470;28;47722;-75
2022/12/17 23:57:13;;;;;;;14.40;10.30;;;15.30;35.50;;;;;;5064492;28;45278;-75
2022/12/17 23:59:40;;;;;;;14.27;9.68;;;15.30;35.60;;;;;;5064704;28;45165;-76
